createdAt,value
2022-11-15T00:03:06.744Z,80.24
2022-11-15T00:08:47.741Z,80.45
2022-11-15T00:14:28.436Z,80.21
2022-11-15T00:20:09.633Z,80.24
2022-11-15T00:25:57.594Z,80.47
2022-11-15T00:31:38.416Z,80.12
2022-11-15T00:37:19.029Z,80.33
2022-11-15T00:43:00.441Z,80.21
2022-11-15T00:48:41.238Z,80.39
2022-11-15T00:54:34.374Z,81.08
2022-11-15T01:00:15.888Z,80.64
2022-11-15T01:06:00.890Z,79.85
2022-11-15T01:11:42.183Z,79.89
2022-11-15T01:17:23.075Z,79.83
2022-11-15T01:23:04.175Z,79.94
2022-11-15T01:28:45.268Z,80.13
2022-11-15T01:34:26.466Z,80.19
2022-11-15T01:40:07.944Z,80.08
2022-11-15T01:45:54.696Z,79.47
2022-11-15T01:51:35.576Z,80.12
2022-11-15T01:57:16.673Z,80.04
2022-11-15T02:02:57.367Z,80.19
2022-11-15T02:08:38.164Z,80.14
2022-11-15T02:14:20.966Z,80.11
2022-11-15T02:20:37.687Z,79.54
2022-11-15T02:26:40.171Z,79.72
2022-11-15T02:32:49.358Z,79.72
2022-11-15T02:38:35.869Z,80.28
2022-11-15T02:44:26.312Z,80.47
2022-11-15T02:50:10.609Z,80.86
2022-11-15T02:55:52.607Z,81.11
2022-11-15T03:01:43.951Z,81.00
2022-11-15T03:07:36.275Z,81.01
2022-11-15T03:13:28.129Z,80.64
2022-11-15T03:19:18.939Z,80.59
2022-11-15T03:25:02.367Z,80.53
2022-11-15T03:30:44.144Z,80.73
2022-11-15T03:36:26.146Z,80.63
2022-11-15T03:42:24.200Z,80.77
2022-11-15T03:48:26.012Z,80.95
2022-11-15T03:54:07.164Z,80.59
2022-11-15T03:59:48.391Z,79.60
2022-11-15T04:05:29.660Z,78.85
2022-11-15T04:11:10.762Z,79.76
2022-11-15T04:16:51.552Z,79.41
2022-11-15T04:22:50.711Z,79.89
2022-11-15T04:28:31.397Z,79.38
2022-11-15T04:34:12.205Z,79.46
2022-11-15T04:39:53.017Z,79.78
2022-11-15T04:45:34.095Z,80.43
2022-11-15T04:51:15.101Z,79.76
2022-11-15T04:56:56.289Z,79.80
2022-11-15T05:02:55.498Z,79.84
2022-11-15T05:08:36.268Z,79.16
2022-11-15T05:14:17.449Z,78.54
2022-11-15T05:19:58.425Z,78.79
2022-11-15T05:25:39.857Z,78.03
2022-11-15T05:31:20.528Z,78.43
2022-11-15T05:37:01.025Z,78.19
2022-11-15T05:42:41.719Z,78.63
2022-11-15T05:48:22.110Z,78.89
2022-11-15T05:54:03.249Z,79.04
2022-11-15T05:59:44.604Z,79.16
2022-11-15T06:05:25.400Z,79.61
2022-11-15T06:11:07.274Z,80.08
2022-11-15T06:16:47.696Z,79.54
2022-11-15T06:22:28.490Z,79.95
2022-11-15T06:28:09.486Z,80.21
2022-11-15T06:33:50.722Z,80.18
2022-11-15T06:39:31.783Z,80.68
2022-11-15T06:45:12.274Z,80.86
2022-11-15T06:50:53.696Z,81.26
2022-11-15T06:56:35.035Z,81.23
2022-11-15T07:02:17.876Z,81.37
2022-11-15T07:07:59.708Z,81.71
2022-11-15T07:13:40.469Z,81.83
2022-11-15T07:19:20.961Z,81.97
2022-11-15T07:25:01.538Z,81.74
2022-11-15T07:30:45.385Z,81.73
2022-11-15T07:36:26.560Z,81.89
2022-11-15T07:42:25.623Z,81.89
2022-11-15T07:48:07.746Z,81.76
2022-11-15T07:53:48.663Z,81.78
2022-11-15T07:59:29.237Z,81.93
2022-11-15T08:05:10.053Z,81.79
2022-11-15T08:10:50.804Z,81.71
2022-11-15T08:16:31.843Z,81.50
2022-11-15T08:22:14.817Z,81.77
2022-11-15T08:27:58.535Z,80.89
2022-11-15T08:33:39.406Z,80.63
2022-11-15T08:39:20.170Z,80.72
2022-11-15T08:45:00.765Z,80.85
2022-11-15T08:50:41.445Z,79.89
2022-11-15T08:56:22.183Z,79.59
2022-11-15T09:02:03.822Z,78.65
2022-11-15T09:07:44.806Z,78.13
2022-11-15T09:13:25.430Z,76.96
2022-11-15T09:19:11.474Z,76.03
2022-11-15T09:24:52.437Z,75.37
2022-11-15T09:30:33.451Z,74.56
2022-11-15T09:36:14.392Z,73.99
2022-11-15T09:42:16.861Z,73.13
2022-11-15T09:48:19.941Z,72.23
2022-11-15T10:00:46.420Z,71.70
2022-11-15T10:06:25.706Z,70.94
2022-11-15T10:11:47.485Z,69.96
2022-11-15T10:17:28.344Z,69.60
2022-11-15T10:23:00.876Z,69.18
2022-11-15T10:28:26.211Z,69.10
2022-11-15T10:33:48.159Z,68.96
2022-11-15T10:39:13.447Z,68.68
2022-11-15T10:44:42.983Z,68.51
2022-11-15T10:50:27.810Z,68.34
2022-11-15T10:55:51.417Z,68.40
2022-11-15T11:01:19.053Z,67.80
2022-11-15T11:06:51.489Z,67.60
2022-11-15T11:12:13.325Z,67.22
2022-11-15T11:18:11.863Z,66.82
2022-11-15T11:23:45.029Z,66.59
2022-11-15T11:29:26.060Z,66.25
2022-11-15T11:35:14.924Z,66.42
2022-11-15T11:41:00.360Z,65.95
2022-11-15T11:46:31.439Z,66.17
2022-11-15T11:51:56.382Z,66.03
2022-11-15T11:57:30.496Z,65.81
2022-11-15T12:03:12.537Z,65.58
2022-11-15T12:08:51.145Z,65.43
2022-11-15T12:14:26.377Z,65.05
2022-11-15T12:19:48.563Z,65.03
2022-11-15T12:25:19.997Z,64.99
2022-11-15T12:30:53.270Z,65.02
2022-11-15T12:36:24.019Z,64.91
2022-11-15T12:41:58.098Z,65.00
2022-11-15T12:47:25.555Z,65.03
2022-11-15T12:53:25.814Z,65.09
2022-11-15T12:58:52.778Z,65.08
2022-11-15T13:04:20.972Z,65.25
2022-11-15T13:09:42.569Z,65.13
2022-11-15T13:15:13.131Z,64.98
2022-11-15T13:20:35.241Z,65.14
2022-11-15T13:26:17.673Z,65.18
2022-11-15T13:31:43.605Z,65.14
2022-11-15T13:37:12.823Z,65.21
2022-11-15T13:42:35.522Z,65.32
2022-11-15T13:47:59.281Z,65.35
2022-11-15T13:53:21.508Z,65.15
2022-11-15T13:58:43.349Z,65.27
2022-11-15T14:04:05.347Z,65.39
2022-11-15T14:09:34.034Z,65.52
2022-11-15T14:14:56.086Z,65.48
2022-11-15T14:20:26.701Z,65.53
2022-11-15T14:25:56.425Z,65.58
2022-11-15T14:31:18.494Z,65.55
2022-11-15T14:36:42.574Z,65.43
2022-11-15T14:42:06.501Z,65.63
2022-11-15T14:47:28.193Z,65.83
2022-11-15T14:52:50.212Z,65.74
2022-11-15T14:58:12.050Z,66.16
2022-11-15T15:03:34.172Z,66.32
2022-11-15T15:08:56.113Z,66.62
2022-11-15T15:14:17.931Z,66.63
2022-11-15T15:19:39.630Z,66.96
2022-11-15T15:25:01.559Z,66.87
2022-11-15T15:30:24.267Z,66.86
2022-11-15T15:35:46.196Z,67.18
2022-11-15T15:41:15.687Z,67.44
2022-11-15T15:46:37.754Z,68.02
2022-11-15T15:51:59.391Z,68.63
2022-11-15T15:57:21.355Z,68.92
2022-11-15T16:02:43.670Z,68.85
2022-11-15T16:08:05.834Z,69.10
2022-11-15T16:13:27.423Z,68.99
2022-11-15T16:18:49.068Z,68.95
2022-11-15T16:24:11.090Z,68.82
2022-11-15T16:29:32.943Z,69.23
2022-11-15T16:34:56.170Z,69.23
2022-11-15T16:40:33.587Z,69.55
2022-11-15T16:45:55.473Z,69.82
2022-11-15T16:51:18.084Z,69.78
2022-11-15T16:56:40.785Z,70.09
2022-11-15T17:02:02.746Z,69.88
2022-11-15T17:07:25.352Z,70.06
2022-11-15T17:12:47.270Z,70.07
2022-11-15T17:18:13.514Z,69.92
2022-11-15T17:23:36.263Z,69.87
2022-11-15T17:28:58.079Z,69.76
2022-11-15T17:34:19.607Z,70.20
2022-11-15T17:39:41.665Z,70.04
2022-11-15T17:45:09.322Z,69.90
2022-11-15T17:50:31.871Z,70.00
2022-11-15T17:55:54.350Z,70.33
2022-11-15T18:01:25.082Z,70.78
2022-11-15T18:06:47.511Z,70.90
2022-11-15T18:12:09.958Z,70.59
2022-11-15T18:17:32.105Z,70.47
2022-11-15T18:22:54.592Z,70.42
2022-11-15T18:28:16.290Z,70.31
2022-11-15T18:33:38.166Z,70.20
2022-11-15T18:39:05.085Z,70.38
2022-11-15T18:44:29.132Z,70.74
2022-11-15T18:49:51.014Z,70.80
2022-11-15T18:55:14.507Z,70.99
2022-11-15T19:00:36.598Z,71.13
2022-11-15T19:06:15.995Z,71.01
2022-11-15T19:11:39.900Z,71.16
2022-11-15T19:17:01.735Z,71.11
2022-11-15T19:22:23.618Z,71.14
2022-11-15T19:27:45.583Z,71.11
2022-11-15T19:33:07.487Z,71.43
2022-11-15T19:38:33.495Z,71.58
2022-11-15T19:43:55.725Z,72.00
2022-11-15T19:49:17.773Z,72.03
2022-11-15T19:54:39.954Z,72.19
2022-11-15T20:00:06.830Z,72.41
2022-11-15T20:05:29.522Z,72.12
2022-11-15T20:10:51.249Z,72.12
2022-11-15T20:16:18.857Z,72.15
2022-11-15T20:21:40.896Z,72.16
2022-11-15T20:27:02.389Z,72.44
2022-11-15T20:32:24.413Z,72.25
2022-11-15T20:37:46.452Z,71.85
2022-11-15T20:43:13.116Z,72.13
2022-11-15T20:48:35.507Z,71.99
2022-11-15T20:53:58.332Z,72.15
2022-11-15T20:59:20.254Z,72.10
2022-11-15T21:04:42.139Z,72.07
2022-11-15T21:10:23.025Z,72.18
2022-11-15T21:15:45.072Z,71.90
2022-11-15T21:21:07.652Z,72.06
2022-11-15T21:26:29.689Z,71.94
2022-11-15T21:31:52.711Z,71.67
2022-11-15T21:37:14.634Z,71.51
2022-11-15T21:42:37.134Z,71.62
2022-11-15T21:47:59.183Z,71.60
2022-11-15T21:53:20.925Z,71.78
2022-11-15T21:58:42.653Z,71.72
2022-11-15T22:04:42.610Z,71.63
2022-11-15T22:10:05.021Z,71.76
2022-11-15T22:15:27.215Z,71.88
2022-11-15T22:21:13.608Z,71.74
2022-11-15T22:26:35.737Z,71.57
2022-11-15T22:31:57.798Z,71.70
2022-11-15T22:37:21.167Z,71.79
2022-11-15T22:42:43.619Z,71.66
2022-11-15T22:48:05.848Z,71.80
2022-11-15T22:53:28.981Z,71.63
2022-11-15T22:58:51.015Z,71.46
2022-11-15T23:04:13.040Z,71.44
2022-11-15T23:09:35.071Z,71.64
2022-11-15T23:14:57.024Z,71.80
2022-11-15T23:20:41.963Z,71.76
2022-11-15T23:26:01.693Z,71.96
2022-11-15T23:31:42.226Z,71.72
2022-11-15T23:37:05.446Z,71.60
2022-11-15T23:42:27.692Z,71.59
2022-11-15T23:47:49.613Z,71.76
2022-11-15T23:53:11.737Z,71.67
2022-11-15T23:58:34.547Z,71.67
